Time;durP1;ratioP1;P1;durP2;ratioP2;P2;SDS_P1;SDS_P2;PMS_P1;PMS_P2;Temp;Humidity;BMP_temperature;BMP_pressure;BME280_temperature;BME280_humidity;BME280_pressure;Samples;Min_cycle;Max_cycle;Signal;HPM_P1;HPM_P2
2022/09/28 00:01:37;;;;;;;8.23;7.20;;;;;;;14.30;78.06;93940.34;4971756;28;20219;-65
2022/09/28 00:04:02;;;;;;;9.82;7.95;;;;;;;14.33;78.20;93931.22;4967293;28;20348;-65
2022/09/28 00:06:29;;;;;;;8.73;7.75;;;;;;;14.39;77.35;93919.00;4965472;28;20189;-65
2022/09/28 00:08:56;;;;;;;8.15;7.13;;;;;;;14.28;77.57;93923.06;4966468;28;20185;-65
2022/09/28 00:11:23;;;;;;;9.32;7.43;;;;;;;14.27;78.43;93921.41;4964800;28;20180;-65
2022/09/28 00:13:51;;;;;;;10.30;7.20;;;;;;;14.14;78.14;93914.28;4962078;28;20243;-65
2022/09/28 00:16:19;;;;;;;8.23;7.38;;;;;;;13.99;78.48;93905.72;4961666;28;20177;-65
2022/09/28 00:18:45;;;;;;;8.40;7.13;;;;;;;13.77;79.40;93910.34;4967496;28;20259;-65
2022/09/28 00:21:16;;;;;;;8.65;7.65;;;;;;;13.97;79.80;93927.03;4965244;28;20207;-64
2022/09/28 00:26:28;;;;;;;6.47;5.88;;;;;;;13.94;77.81;93916.88;4958568;28;20195;-65
2022/09/28 00:28:57;;;;;;;7.25;6.63;;;;;;;13.92;77.65;93908.31;4961860;28;20289;-65
2022/09/28 00:31:23;;;;;;;8.00;6.95;;;;;;;13.87;78.72;93913.38;4961631;28;20231;-65
2022/09/28 00:33:55;;;;;;;7.53;6.82;;;;;;;13.76;79.17;93912.13;4965047;28;20192;-66
2022/09/28 00:36:22;;;;;;;8.50;6.80;;;;;;;13.65;79.33;93912.72;4963539;28;20212;-66
2022/09/28 00:38:47;;;;;;;7.88;6.60;;;;;;;13.74;78.97;93919.47;4970241;28;20191;-66
2022/09/28 00:41:14;;;;;;;9.82;7.30;;;;;;;13.78;78.31;93918.03;4970874;28;20218;-66
2022/09/28 00:43:40;;;;;;;7.72;6.80;;;;;;;13.67;78.05;93908.06;4971222;28;20318;-66
2022/09/28 00:46:20;;;;;;;6.93;6.13;;;;;;;13.61;78.00;93906.22;4965890;28;20193;-66
2022/09/28 00:49:01;;;;;;;6.78;6.00;;;;;;;13.60;78.31;93907.19;4964757;28;20184;-66
2022/09/28 00:51:29;;;;;;;6.45;5.57;;;;;;;13.77;77.12;93903.22;4971452;28;20263;-66
2022/09/28 00:53:56;;;;;;;7.22;6.20;;;;;;;13.76;76.43;93909.50;4969564;28;20185;-66
2022/09/28 00:56:26;;;;;;;8.23;6.28;;;;;;;13.64;77.13;93903.16;4966968;28;20183;-66
2022/09/28 00:58:53;;;;;;;7.80;6.03;;;;;;;13.66;77.44;93904.59;4964979;28;20188;-65
2022/09/28 01:01:19;;;;;;;6.25;5.65;;;;;;;13.65;77.32;93904.78;4967277;28;20200;-66
2022/09/28 01:03:47;;;;;;;7.50;6.40;;;;;;;13.57;77.13;93904.97;4967135;28;20180;-67
2022/09/28 01:06:26;;;;;;;6.03;5.05;;;;;;;13.60;77.14;93908.00;4974343;28;20192;-65
2022/09/28 01:08:57;;;;;;;6.03;5.40;;;;;;;13.64;76.52;93911.91;4967944;28;20238;-65
2022/09/28 01:11:24;;;;;;;6.13;5.30;;;;;;;13.50;77.59;93902.31;4973253;28;20192;-65
2022/09/28 01:13:52;;;;;;;7.10;5.78;;;;;;;13.55;77.43;93915.75;4971561;28;20189;-65
2022/09/28 01:16:29;;;;;;;10.10;6.00;;;;;;;13.46;77.84;93915.06;4975223;28;20243;-63
2022/09/28 01:18:57;;;;;;;7.60;6.00;;;;;;;13.53;77.46;93909.03;4968070;28;20196;-63
2022/09/28 01:21:24;;;;;;;7.32;5.07;;;;;;;13.74;75.92;93918.63;4960772;28;20270;-64
2022/09/28 01:23:53;;;;;;;7.60;5.60;;;;;;;13.71;75.45;93905.81;4970782;28;20215;-64
2022/09/28 01:26:37;;;;;;;6.70;5.38;;;;;;;13.61;76.29;93907.00;4974022;28;20185;-64
2022/09/28 01:29:36;;;;;;;6.20;5.53;;;;;;;13.50;77.24;93910.22;4962727;28;20230;-63
2022/09/28 01:32:18;;;;;;;6.65;5.60;;;;;;;13.41;78.04;93906.91;4985074;28;20196;-63
2022/09/28 01:35:08;;;;;;;8.32;5.93;;;;;;;13.14;78.87;93924.41;4967575;28;20208;-63
2022/09/28 01:37:57;;;;;;;7.78;5.40;;;;;;;13.42;77.11;93929.69;4969053;28;20193;-62
2022/09/28 01:40:26;;;;;;;6.72;4.88;;;;;;;13.37;76.47;93923.38;4960042;28;20192;-63
2022/09/28 01:43:04;;;;;;;7.43;5.65;;;;;;;13.40;77.06;93931.69;4970942;28;20248;-63
2022/09/28 01:45:40;;;;;;;7.22;4.65;;;;;;;13.35;76.73;93935.94;4969492;28;20183;-63
2022/09/28 01:48:08;;;;;;;9.02;4.72;;;;;;;13.22;76.23;93911.06;4969087;28;20183;-63
2022/09/28 01:50:40;;;;;;;6.50;5.30;;;;;;;13.17;77.45;93905.53;4967960;28;20177;-64
2022/09/28 01:53:36;;;;;;;6.05;4.75;;;;;;;13.31;77.62;93946.09;4977206;28;20283;-63
2022/09/28 01:56:16;;;;;;;6.00;4.78;;;;;;;13.21;77.58;93932.38;4962961;28;20196;-63
2022/09/28 01:58:51;;;;;;;5.72;5.13;;;;;;;13.17;77.18;93905.53;4969241;28;20181;-64
2022/09/28 02:01:23;;;;;;;5.43;4.88;;;;;;;13.03;78.59;93925.78;4964460;28;20209;-64
2022/09/28 02:03:59;;;;;;;7.15;5.32;;;;;;;13.10;78.08;93946.94;4964088;28;20204;-67
2022/09/28 02:06:31;;;;;;;4.63;4.15;;;;;;;13.19;76.56;93940.47;4973567;28;20179;-67
2022/09/28 02:09:04;;;;;;;4.97;3.92;;;;;;;13.13;76.74;93922.78;4967018;28;20249;-67
2022/09/28 02:11:32;;;;;;;4.78;4.20;;;;;;;13.00;78.46;93938.53;4964087;28;20180;-68
2022/09/28 02:14:05;;;;;;;5.18;4.68;;;;;;;13.04;77.77;93947.69;4970695;28;20245;-68
2022/09/28 02:16:46;;;;;;;9.55;4.70;;;;;;;13.04;77.73;93926.56;4971127;28;20230;-68
2022/09/28 02:19:27;;;;;;;6.40;4.70;;;;;;;13.08;77.91;93927.84;4971666;28;20192;-67
2022/09/28 02:22:13;;;;;;;5.97;4.95;;;;;;;13.17;77.55;93941.69;4971282;28;20256;-67
2022/09/28 02:24:58;;;;;;;5.90;5.40;;;;;;;13.04;77.95;93916.03;4966456;28;20181;-68
2022/09/28 02:27:38;;;;;;;6.20;5.60;;;;;;;12.97;78.49;93936.28;4963784;28;20189;-68
2022/09/28 02:30:05;;;;;;;6.13;5.32;;;;;;;13.01;77.94;93932.25;4962766;28;20252;-67
2022/09/28 02:32:39;;;;;;;6.57;5.72;;;;;;;12.95;78.27;93911.91;4971377;28;20192;-67
2022/09/28 02:35:07;;;;;;;6.70;6.05;;;;;;;12.85;79.45;93936.00;4967465;28;20232;-68
2022/09/28 02:37:32;;;;;;;7.43;6.35;;;;;;;12.86;79.35;93953.47;4963102;28;20184;-67
2022/09/28 02:39:58;;;;;;;7.57;6.25;;;;;;;12.82;79.60;93941.66;4957958;28;20197;-68
2022/09/28 02:42:33;;;;;;;7.07;6.45;;;;;;;12.79;79.88;93942.03;4966601;28;20259;-68
2022/09/28 02:45:10;;;;;;;6.70;6.07;;;;;;;12.85;79.88;93940.47;4966411;28;20243;-68
2022/09/28 02:47:57;;;;;;;6.90;6.22;;;;;;;12.88;79.72;93946.16;4973807;28;20205;-68
2022/09/28 02:50:35;;;;;;;6.90;5.97;;;;;;;12.90;79.46;93941.50;4976940;28;20271;-68
2022/09/28 02:53:25;;;;;;;7.88;5.38;;;;;;;12.96;79.52;93945.19;4978872;28;20192;-68
2022/09/28 02:55:57;;;;;;;8.65;6.47;;;;;;;12.90;78.99;93945.97;4965970;28;20184;-68
2022/09/28 02:58:46;;;;;;;7.53;6.78;;;;;;;12.69;79.57;93941.56;4972511;28;20199;-68
2022/09/28 03:01:28;;;;;;;9.70;6.38;;;;;;;12.65;80.09;93942.97;4982463;28;20219;-67
2022/09/28 03:03:59;;;;;;;7.55;6.85;;;;;;;12.76;80.31;93939.78;4973509;28;20275;-67
2022/09/28 03:06:44;;;;;;;7.88;7.13;;;;;;;12.79;79.91;93942.03;4981459;28;20231;-67
2022/09/28 03:09:20;;;;;;;7.95;6.30;;;;;;;12.76;79.83;93939.78;4971401;28;20190;-67
2022/09/28 03:11:50;;;;;;;11.02;6.82;;;;;;;12.60;80.56;93956.72;4975512;28;20183;-67
2022/09/28 03:14:16;;;;;;;7.70;7.00;;;;;;;12.60;80.71;93955.91;4968096;28;20328;-67
2022/09/28 03:16:43;;;;;;;7.75;7.05;;;;;;;12.70;80.53;93959.84;4974488;28;20184;-67
2022/09/28 03:19:11;;;;;;;8.18;7.00;;;;;;;12.78;80.52;93972.06;4973370;28;20192;-68
2022/09/28 03:21:36;;;;;;;9.27;6.90;;;;;;;12.93;79.01;93964.06;4964641;28;20207;-68
2022/09/28 03:24:04;;;;;;;8.32;6.97;;;;;;;12.88;79.47;93962.00;4969154;28;20188;-67
2022/09/28 03:26:30;;;;;;;7.75;6.28;;;;;;;12.93;79.55;93974.63;4981716;28;20263;-67
2022/09/28 03:28:56;;;;;;;7.10;5.90;;;;;;;12.96;79.09;93966.31;4973685;28;20187;-67
2022/09/28 03:31:22;;;;;;;10.25;6.30;;;;;;;12.99;79.10;93979.97;4968163;28;20180;-67
2022/09/28 03:33:47;;;;;;;6.68;6.00;;;;;;;12.99;78.63;93965.91;4973315;28;20188;-67
2022/09/28 03:36:14;;;;;;;15.52;6.80;;;;;;;12.95;79.01;93976.06;4971154;28;20179;-67
2022/09/28 03:38:39;;;;;;;8.95;6.43;;;;;;;13.07;78.94;93979.00;4981305;28;20179;-67
2022/09/28 03:41:05;;;;;;;7.15;5.75;;;;;;;13.03;78.64;93973.28;4976528;28;20230;-68
2022/09/28 03:43:30;;;;;;;7.13;6.43;;;;;;;13.10;78.86;93991.81;4946580;28;20247;-68
2022/09/28 03:45:58;;;;;;;6.53;6.00;;;;;;;13.11;78.77;93974.94;4949801;29;20211;-68
2022/09/28 03:48:26;;;;;;;9.93;5.93;;;;;;;13.03;78.65;93964.53;4950793;28;20204;-68
2022/09/28 03:50:53;;;;;;;7.80;6.72;;;;;;;13.17;78.93;93979.44;4947616;29;20181;-68
2022/09/28 03:53:19;;;;;;;10.32;6.97;;;;;;;13.21;78.04;93962.22;4950605;29;20220;-68
2022/09/28 03:55:44;;;;;;;10.32;7.25;;;;;;;12.94;79.22;93968.34;4949803;29;20300;-69
2022/09/28 03:58:09;;;;;;;9.23;7.50;;;;;;;12.97;80.01;93978.50;4947448;28;20177;-68
2022/09/28 04:00:37;;;;;;;7.22;6.53;;;;;;;13.16;79.30;93983.09;4948169;29;20201;-68
2022/09/28 04:03:02;;;;;;;9.85;7.00;;;;;;;13.11;78.99;93984.69;4949015;29;20193;-68
2022/09/28 04:05:28;;;;;;;10.95;8.05;;;;;;;13.09;79.59;93987.50;4950280;29;20186;-69
2022/09/28 04:07:56;;;;;;;10.18;6.28;;;;;;;13.06;79.13;93982.63;4948315;29;20214;-68
2022/09/28 04:10:22;;;;;;;7.45;6.25;;;;;;;13.01;78.87;93970.00;4948000;29;20252;-68
2022/09/28 04:12:48;;;;;;;6.75;5.97;;;;;;;13.08;78.60;93972.69;4958914;28;20176;-68
2022/09/28 04:15:14;;;;;;;8.65;6.10;;;;;;;13.01;78.02;93974.47;4944739;29;20186;-68
2022/09/28 04:17:39;;;;;;;9.23;6.20;;;;;;;12.96;78.96;93974.22;4928111;29;20193;-67
2022/09/28 04:20:06;;;;;;;9.63;6.90;;;;;;;12.96;78.83;93967.16;4949504;29;20197;-67
2022/09/28 04:22:31;;;;;;;9.68;6.22;;;;;;;12.88;79.35;93963.81;4946120;29;20259;-68
2022/09/28 04:24:57;;;;;;;7.22;6.22;;;;;;;12.94;79.19;93973.63;4948396;29;20177;-68
2022/09/28 04:30:07;;;;;;;8.13;6.38;;;;;;;12.98;78.61;93974.84;4942737;29;20247;-68
2022/09/28 04:32:33;;;;;;;10.63;6.60;;;;;;;13.08;78.60;93977.97;4930916;29;20186;-67
2022/09/28 04:34:59;;;;;;;8.63;6.47;;;;;;;13.00;78.98;93975.50;4949140;29;20189;-68
2022/09/28 04:37:24;;;;;;;8.98;6.50;;;;;;;13.00;79.22;93978.94;4949237;29;20196;-68
2022/09/28 04:39:49;;;;;;;13.07;7.45;;;;;;;13.10;78.55;93972.53;4940838;29;20197;-68
2022/09/28 04:42:15;;;;;;;13.20;7.18;;;;;;;13.07;78.60;93978.16;4959134;28;20216;-67
2022/09/28 04:44:40;;;;;;;11.60;6.80;;;;;;;13.23;77.84;93969.94;4962242;28;20232;-68
2022/09/28 04:47:06;;;;;;;9.82;6.88;;;;;;;13.20;77.85;93971.16;4968429;28;20191;-67
2022/09/28 04:49:34;;;;;;;7.53;6.40;;;;;;;13.20;78.21;93975.59;4962188;28;20188;-67
2022/09/28 04:51:59;;;;;;;13.00;7.07;;;;;;;13.22;78.27;93970.97;4966917;28;20262;-67
2022/09/28 04:54:25;;;;;;;8.45;7.28;;;;;;;13.31;78.11;93967.22;4968401;28;20176;-67
2022/09/28 04:56:51;;;;;;;12.02;7.40;;;;;;;13.21;78.79;93962.22;4961427;28;20243;-68
2022/09/28 04:59:17;;;;;;;12.63;7.65;;;;;;;13.28;78.96;93957.00;4967932;28;20291;-69
2022/09/28 05:01:42;;;;;;;11.85;7.60;;;;;;;13.42;78.93;93976.41;4963238;28;20200;-67
2022/09/28 05:04:08;;;;;;;10.15;8.13;;;;;;;13.39;78.75;93968.84;4962093;28;20189;-67
2022/09/28 05:06:33;;;;;;;9.52;8.10;;;;;;;13.35;78.91;93970.25;4968131;28;20188;-68
2022/09/28 05:08:59;;;;;;;11.25;8.40;;;;;;;13.41;79.01;93956.28;4962331;28;20207;-68
2022/09/28 05:11:24;;;;;;;10.05;8.68;;;;;;;13.45;78.80;93954.88;4966522;28;20187;-68
2022/09/28 05:13:49;;;;;;;10.57;8.82;;;;;;;13.08;81.01;93975.34;4959579;28;20192;-67
2022/09/28 05:16:15;;;;;;;12.35;10.10;;;;;;;13.26;81.49;93974.88;4955713;28;20200;-68
2022/09/28 05:18:41;;;;;;;11.82;10.63;;;;;;;13.30;80.85;93977.94;4968625;28;20272;-67
2022/09/28 05:21:14;;;;;;;12.82;10.57;;;;;;;13.36;80.82;93977.16;4964592;28;20211;-68
2022/09/28 05:23:44;;;;;;;14.18;11.65;;;;;;;13.30;80.72;93991.97;4961135;28;20185;-68
2022/09/28 05:26:10;;;;;;;13.90;11.77;;;;;;;13.14;81.15;93995.69;4962238;28;20212;-68
2022/09/28 05:28:35;;;;;;;12.60;11.32;;;;;;;13.20;81.24;93996.72;4962998;28;20244;-68
2022/09/28 05:31:03;;;;;;;16.33;12.27;;;;;;;13.28;81.31;93998.44;4965854;28;20236;-68
2022/09/28 05:33:29;;;;;;;12.82;11.55;;;;;;;13.37;80.74;93989.38;4968159;28;20198;-67
2022/09/28 05:35:55;;;;;;;13.20;11.80;;;;;;;13.30;81.37;93991.97;4961765;28;20243;-68
2022/09/28 05:38:21;;;;;;;13.90;12.40;;;;;;;13.36;81.84;93987.72;4966003;28;20271;-68
2022/09/28 05:40:47;;;;;;;12.35;11.10;;;;;;;13.42;81.82;93989.63;4961719;28;20272;-68
2022/09/28 05:43:12;;;;;;;13.70;12.30;;;;;;;13.57;81.60;93994.75;4963620;28;20240;-68
2022/09/28 05:45:37;;;;;;;14.00;12.60;;;;;;;13.80;80.22;93983.91;4965676;28;20196;-68
2022/09/28 05:48:03;;;;;;;15.52;13.50;;;;;;;13.73;81.40;93994.44;4964634;28;20200;-68
2022/09/28 05:50:28;;;;;;;19.42;14.07;;;;;;;13.78;81.54;94005.22;4965648;28;20196;-68
2022/09/28 05:52:59;;;;;;;15.82;14.00;;;;;;;13.82;80.61;93976.56;4964842;28;20247;-67
2022/09/28 05:55:24;;;;;;;14.75;13.40;;;;;;;13.88;81.17;94000.41;4970628;28;20239;-67
2022/09/28 05:57:50;;;;;;;15.63;14.07;;;;;;;13.89;81.29;93988.00;4961981;28;20180;-68
2022/09/28 06:00:15;;;;;;;15.90;14.32;;;;;;;13.93;80.79;93980.50;4964044;28;20180;-67
2022/09/28 06:02:40;;;;;;;15.88;14.35;;;;;;;13.98;81.58;93988.63;4967523;28;20201;-68
2022/09/28 06:05:06;;;;;;;16.48;14.80;;;;;;;14.07;81.59;93987.47;4981829;28;20192;-68
2022/09/28 06:07:32;;;;;;;14.98;13.40;;;;;;;14.33;81.27;94003.41;4965338;28;20261;-67
2022/09/28 06:09:58;;;;;;;14.73;13.30;;;;;;;14.59;80.41;94004.50;4965704;28;20180;-69
2022/09/28 06:12:24;;;;;;;17.23;14.38;;;;;;;14.77;78.95;94003.91;4970685;28;20283;-67
2022/09/28 06:14:50;;;;;;;13.80;12.40;;;;;;;14.99;77.32;94001.88;4967990;28;20279;-69
2022/09/28 06:17:15;;;;;;;13.25;12.10;;;;;;;15.07;76.18;94008.81;4970329;28;20264;-69
2022/09/28 06:19:41;;;;;;;14.20;12.65;;;;;;;15.05;75.79;94003.75;4967110;28;20192;-69
2022/09/28 06:22:06;;;;;;;19.00;13.85;;;;;;;14.89;77.98;94010.25;4969043;28;20205;-67
2022/09/28 06:24:32;;;;;;;15.27;13.68;;;;;;;15.07;77.84;94012.28;4964392;28;20263;-66
2022/09/28 06:26:57;;;;;;;18.67;16.88;;;;;;;14.86;80.04;94008.03;4965454;28;20187;-67
2022/09/28 06:29:23;;;;;;;21.70;17.75;;;;;;;15.00;80.01;94000.88;4962665;28;20196;-68
2022/09/28 06:31:48;;;;;;;19.88;17.77;;;;;;;14.98;80.31;94013.50;4962843;28;20196;-66
2022/09/28 06:34:13;;;;;;;21.30;19.02;;;;;;;15.05;80.07;94013.50;4958814;28;20184;-68
2022/09/28 06:36:39;;;;;;;19.50;17.42;;;;;;;15.05;79.53;94016.13;4962013;28;20180;-68
2022/09/28 06:39:05;;;;;;;18.42;16.70;;;;;;;15.00;79.24;94014.13;4961458;28;20196;-67
2022/09/28 06:41:31;;;;;;;19.60;17.90;;;;;;;15.02;78.53;94012.06;4961535;28;20204;-68
2022/09/28 06:43:56;;;;;;;19.17;17.17;;;;;;;14.82;78.92;94019.19;4965309;28;20237;-68
2022/09/28 06:46:22;;;;;;;21.17;18.83;;;;;;;14.88;78.93;94019.19;4963179;28;20259;-69
2022/09/28 06:48:48;;;;;;;20.75;18.85;;;;;;;15.10;78.31;94021.66;4958866;28;20192;-69
2022/09/28 06:51:14;;;;;;;20.35;18.55;;;;;;;15.25;77.05;94024.09;4964812;28;20194;-70
2022/09/28 06:53:40;;;;;;;21.20;19.10;;;;;;;15.21;76.72;94026.34;4965312;28;20230;-68
2022/09/28 06:56:09;;;;;;;22.08;19.92;;;;;;;15.14;77.32;94030.81;4968297;28;20196;-70
2022/09/28 06:58:34;;;;;;;20.98;18.98;;;;;;;15.02;77.37;94025.31;4970570;28;20192;-68
2022/09/28 07:01:00;;;;;;;22.38;20.23;;;;;;;15.10;76.28;94025.13;4970641;28;20575;-67
2022/09/28 07:03:26;;;;;;;21.63;19.30;;;;;;;14.49;78.24;94028.69;4967821;28;20190;-68
2022/09/28 07:05:55;;;;;;;22.13;19.90;;;;;;;14.54;78.03;94023.63;4970415;28;20281;-68
2022/09/28 07:08:23;;;;;;;22.23;20.02;;;;;;;14.63;77.93;94036.69;4969176;28;20200;-68
2022/09/28 07:10:55;;;;;;;24.63;20.20;;;;;;;14.86;76.98;94042.44;4970882;28;20196;-68
2022/09/28 07:13:26;;;;;;;27.30;21.27;;;;;;;14.63;78.01;94041.97;4967567;28;20199;-69
2022/09/28 07:15:55;;;;;;;26.02;21.88;;;;;;;14.77;77.35;94033.84;4965167;28;20196;-67
2022/09/28 07:18:22;;;;;;;26.55;23.23;;;;;;;14.77;77.66;94036.47;4965383;28;20211;-71
2022/09/28 07:20:48;;;;;;;27.13;21.95;;;;;;;14.85;78.34;94037.31;4965201;28;20339;-68
2022/09/28 07:23:14;;;;;;;25.40;21.67;;;;;;;14.98;77.66;94032.84;4960349;28;20208;-69
2022/09/28 07:25:44;;;;;;;24.40;22.00;;;;;;;15.06;76.96;94042.44;4960153;28;20204;-69
2022/09/28 07:28:10;;;;;;;24.27;21.65;;;;;;;14.77;79.09;94035.69;4983745;28;20195;-68
2022/09/28 07:30:37;;;;;;;24.88;20.92;;;;;;;14.94;79.20;94041.38;4961928;28;20196;-71
2022/09/28 07:33:07;;;;;;;23.63;21.23;;;;;;;15.22;78.33;94035.91;4963208;28;20193;-70
2022/09/28 07:35:35;;;;;;;22.48;20.17;;;;;;;15.22;77.35;94049.16;4961230;28;20203;-68
2022/09/28 07:38:03;;;;;;;21.42;19.23;;;;;;;15.42;77.05;94042.03;4965780;28;20275;-69
2022/09/28 07:43:15;;;;;;;20.73;18.52;;;;;;;15.99;73.30;94041.53;4973612;28;20241;-70
2022/09/28 07:45:42;;;;;;;18.17;16.27;;;;;;;16.18;73.07;94048.59;4987923;28;20196;-69
2022/09/28 07:48:08;;;;;;;18.45;16.13;;;;;;;16.37;72.09;94054.84;4985399;28;20195;-67
2022/09/28 07:50:33;;;;;;;17.42;15.55;;;;;;;16.29;70.98;94036.53;4963166;28;20187;-70
2022/09/28 07:52:59;;;;;;;17.65;14.93;;;;;;;15.97;72.94;94036.44;4975586;28;20187;-68
2022/09/28 07:55:25;;;;;;;17.17;15.32;;;;;;;16.10;73.28;94056.78;4969010;28;20187;-68
2022/09/28 07:58:00;;;;;;;19.17;15.63;;;;;;;15.91;72.64;94041.78;4983172;28;20175;-67
2022/09/28 08:00:31;;;;;;;16.45;14.27;;;;;;;15.90;73.89;94040.13;4984107;28;20210;-69
2022/09/28 08:03:01;;;;;;;17.48;14.88;;;;;;;16.08;73.72;94046.38;4965481;28;20220;-68
2022/09/28 08:05:31;;;;;;;17.45;13.52;;;;;;;16.25;72.61;94041.44;4976438;28;20279;-68
2022/09/28 08:07:58;;;;;;;14.90;12.88;;;;;;;16.22;72.76;94052.44;4973750;28;20183;-68
2022/09/28 08:10:25;;;;;;;13.45;12.05;;;;;;;16.36;71.81;94061.19;4974943;28;20195;-68
2022/09/28 08:12:55;;;;;;;12.07;10.93;;;;;;;16.20;71.91;94043.91;4957387;28;20188;-68
2022/09/28 08:15:20;;;;;;;14.07;11.07;;;;;;;16.21;72.70;94053.47;4972201;28;20202;-67
2022/09/28 08:17:47;;;;;;;14.45;10.23;;;;;;;16.32;72.79;94052.00;4983297;28;20188;-68
2022/09/28 08:23:05;;;;;;;13.30;10.40;;;;;;;16.44;72.01;94057.47;4987290;28;20218;-69
2022/09/28 08:25:31;;;;;;;13.48;8.95;;;;;;;16.60;71.71;94046.38;4969447;28;20204;-67
2022/09/28 08:27:57;;;;;;;10.60;7.55;;;;;;;16.80;70.53;94048.13;4952077;28;20190;-67
2022/09/28 08:30:22;;;;;;;8.52;6.13;;;;;;;16.82;69.90;94051.41;4981394;28;20192;-67
2022/09/28 08:32:48;;;;;;;9.18;6.65;;;;;;;16.75;69.82;94054.84;4975243;28;20329;-67
2022/09/28 08:35:14;;;;;;;9.40;7.07;;;;;;;16.90;69.02;94059.09;4963792;28;20180;-69
2022/09/28 08:37:41;;;;;;;10.52;7.18;;;;;;;16.94;68.51;94054.97;4973349;28;20576;-67
2022/09/28 08:40:17;;;;;;;7.65;6.47;;;;;;;17.07;68.99;94054.88;4970474;28;20270;-68
2022/09/28 08:42:44;;;;;;;7.00;5.63;;;;;;;17.10;68.27;94038.50;4969500;28;20231;-67
2022/09/28 08:45:19;;;;;;;8.93;6.88;;;;;;;17.12;68.51;94040.97;4961307;28;20290;-67
2022/09/28 08:51:09;;;;;;;7.18;5.07;;;;;;;17.14;67.88;94037.06;4980705;28;20179;-67
2022/09/28 08:53:38;;;;;;;6.65;5.03;;;;;;;17.46;67.36;94034.38;4977101;28;20215;-67
2022/09/28 08:56:11;;;;;;;7.97;5.20;;;;;;;17.56;67.27;94031.19;4969512;28;20180;-68
2022/09/28 08:58:41;;;;;;;9.40;5.10;;;;;;;17.71;67.20;94031.66;4966038;28;20275;-69
2022/09/28 09:01:15;;;;;;;6.78;4.50;;;;;;;17.77;66.77;94029.97;4971968;28;20200;-68
2022/09/28 09:03:44;;;;;;;6.68;3.70;;;;;;;17.78;64.80;94034.28;4967927;28;20302;-68
2022/09/28 09:06:28;;;;;;;5.63;3.20;;;;;;;17.82;64.33;94027.50;4990648;28;20214;-68
2022/09/28 09:09:22;;;;;;;5.47;3.40;;;;;;;17.99;64.26;94025.91;4971407;28;20199;-69
2022/09/28 09:11:55;;;;;;;9.27;4.13;;;;;;;18.10;63.71;94031.50;4969661;28;20183;-69
2022/09/28 09:14:36;;;;;;;7.20;3.83;;;;;;;18.39;63.15;94029.91;4976007;28;20215;-68
2022/09/28 09:17:13;;;;;;;10.80;4.13;;;;;;;18.46;61.09;94035.97;4967461;28;20281;-68
2022/09/28 09:19:57;;;;;;;7.22;3.70;;;;;;;18.61;60.18;94022.28;4980082;28;20214;-69
2022/09/28 09:22:39;;;;;;;14.80;5.05;;;;;;;18.68;61.51;94015.00;4980387;28;20207;-68
2022/09/28 09:25:17;;;;;;;8.30;4.75;;;;;;;18.81;61.39;94012.19;4974966;28;20177;-68
2022/09/28 09:27:49;;;;;;;7.00;3.92;;;;;;;18.80;61.07;94015.09;4986505;28;20194;-67
2022/09/28 09:30:20;;;;;;;5.75;4.00;;;;;;;18.94;59.87;94014.66;4973389;28;20306;-67
2022/09/28 09:33:33;;;;;;;8.68;5.03;;;;;;;19.12;60.13;94018.28;4987037;28;20178;-68
2022/09/28 09:36:13;;;;;;;6.72;3.67;;;;;;;19.23;59.94;94022.00;4877685;29;20209;-68
2022/09/28 09:39:01;;;;;;;6.90;4.03;;;;;;;19.44;58.28;94007.31;4881488;29;20195;-68
2022/09/28 09:42:00;;;;;;;5.93;4.00;;;;;;;19.70;58.84;94008.72;4892979;29;20278;-66
2022/09/28 09:44:55;;;;;;;5.10;4.60;;;;;;;19.79;55.77;93994.00;4896264;29;20241;-67
2022/09/28 09:47:32;;;;;;;6.40;3.50;;;;;;;19.96;55.60;93999.44;4886281;29;20206;-67
2022/09/28 09:50:38;;;;;;;7.60;3.05;;;;;;;20.19;54.16;93999.38;4878961;29;20188;-68
2022/09/28 09:53:47;;;;;;;10.23;3.63;;;;;;;20.25;53.12;93990.44;4879252;29;20202;-67
2022/09/28 09:56:22;;;;;;;6.53;2.95;;;;;;;20.26;53.96;93996.56;4823552;29;20205;-67
2022/09/28 09:58:56;;;;;;;4.40;2.58;;;;;;;20.43;50.83;93997.47;4821511;29;20288;-66
2022/09/28 10:01:42;;;;;;;6.95;2.80;;;;;;;20.19;51.13;93999.38;4825746;29;20224;-67
2022/09/28 10:04:16;;;;;;;4.70;2.75;;;;;;;20.19;50.91;94003.94;4805275;29;20200;-66
2022/09/28 10:06:42;;;;;;;5.22;2.75;;;;;;;20.20;50.34;93998.34;4851406;29;20201;-67
2022/09/28 10:09:22;;;;;;;3.90;2.22;;;;;;;20.41;49.89;93998.75;4899092;29;20249;-67
2022/09/28 10:11:49;;;;;;;5.00;2.35;;;;;;;20.62;49.35;93997.31;4895048;29;20285;-67
2022/09/28 10:14:22;;;;;;;6.28;4.20;;;;;;;20.84;48.97;94002.78;4897271;29;20265;-67
2022/09/28 10:16:51;;;;;;;4.53;3.28;;;;;;;21.14;48.97;93999.81;4894730;29;20182;-67
2022/09/28 10:19:20;;;;;;;6.35;3.55;;;;;;;21.37;48.57;93990.84;4912677;29;20198;-67
2022/09/28 10:21:52;;;;;;;3.80;3.17;;;;;;;21.51;48.57;93991.34;4913325;29;20213;-67
2022/09/28 10:24:44;;;;;;;3.65;2.40;;;;;;;21.72;47.07;93984.44;4895699;29;20203;-68
2022/09/28 10:27:33;;;;;;;3.50;2.38;;;;;;;21.86;45.77;93977.66;4897815;29;20187;-68
2022/09/28 10:30:08;;;;;;;5.30;2.80;;;;;;;21.89;46.59;93968.34;4898322;29;20222;-67
2022/09/28 10:32:45;;;;;;;5.15;2.65;;;;;;;22.12;46.30;93970.00;4965160;28;20262;-67
2022/09/28 10:35:17;;;;;;;7.55;2.97;;;;;;;22.33;44.95;93971.06;4965256;28;20662;-66
2022/09/28 10:38:15;;;;;;;3.83;1.90;;;;;;;22.47;46.22;93966.94;4985196;28;20176;-66
2022/09/28 10:40:44;;;;;;;4.35;2.42;;;;;;;22.66;44.55;93965.53;4968846;28;20198;-65
2022/09/28 10:43:27;;;;;;;6.32;2.40;;;;;;;22.76;43.70;93969.41;4968209;28;20281;-64
2022/09/28 10:46:11;;;;;;;2.63;2.08;;;;;;;22.72;42.81;93958.38;4979803;28;20263;-65
2022/09/28 10:48:52;;;;;;;3.13;2.05;;;;;;;22.89;43.35;93958.25;4974178;28;20278;-66
2022/09/28 10:51:18;;;;;;;5.40;2.42;;;;;;;23.11;43.19;93952.84;4974408;28;20267;-66
2022/09/28 10:54:00;;;;;;;3.47;1.90;;;;;;;22.90;41.02;93941.91;4975593;28;20279;-66
2022/09/28 10:56:35;;;;;;;3.08;2.10;;;;;;;22.99;42.07;93946.84;4963663;28;20194;-65
2022/09/28 10:59:00;;;;;;;5.40;1.90;;;;;;;23.11;41.45;93953.66;4970438;28;20395;-67
2022/09/28 11:01:31;;;;;;;2.55;1.65;;;;;;;23.43;41.36;93944.78;4971438;28;20215;-66
2022/09/28 11:04:01;;;;;;;4.97;2.10;;;;;;;23.62;39.75;93944.38;4994886;28;20191;-65
2022/09/28 11:06:35;;;;;;;2.75;2.05;;;;;;;23.94;41.52;93944.31;4974188;28;20184;-66
2022/09/28 11:09:03;;;;;;;3.42;1.92;;;;;;;23.97;38.94;93933.84;4977801;28;20187;-66
2022/09/28 11:11:30;;;;;;;5.25;2.08;;;;;;;23.98;37.77;93934.69;4973560;28;20294;-64
2022/09/28 11:14:02;;;;;;;3.70;1.63;;;;;;;23.88;38.03;93929.25;4968331;28;20192;-65
2022/09/28 11:16:30;;;;;;;2.50;1.90;;;;;;;24.68;39.46;93927.16;4971090;28;20183;-68
2022/09/28 11:19:01;;;;;;;2.65;1.83;;;;;;;24.89;36.31;93922.63;4972194;28;20213;-67
2022/09/28 11:21:33;;;;;;;3.75;2.13;;;;;;;25.08;36.91;93922.91;4987019;28;20203;-67
2022/09/28 11:24:06;;;;;;;4.88;2.08;;;;;;;25.30;37.52;93919.97;4976562;28;20184;-65
2022/09/28 11:26:44;;;;;;;7.72;2.40;;;;;;;25.61;34.59;93911.81;4986471;28;20247;-65
2022/09/28 11:29:25;;;;;;;4.75;2.03;;;;;;;24.83;34.78;93910.22;4983149;28;20254;-66
2022/09/28 11:31:52;;;;;;;4.03;1.90;;;;;;;24.88;34.67;93910.22;4986548;28;20203;-65
2022/09/28 11:34:21;;;;;;;3.47;2.10;;;;;;;24.99;34.98;93898.44;4972644;28;20184;-64
2022/09/28 11:36:55;;;;;;;3.78;2.25;;;;;;;25.37;35.96;93895.44;4983639;28;20188;-65
2022/09/28 11:39:46;;;;;;;5.53;2.20;;;;;;;25.73;35.37;93885.44;4982387;28;20183;-66
2022/09/28 11:42:30;;;;;;;3.33;2.13;;;;;;;25.89;33.53;93894.28;4972289;28;20232;-67
2022/09/28 11:45:09;;;;;;;4.03;2.05;;;;;;;25.82;34.81;93886.50;4966324;28;20211;-67
2022/09/28 11:47:58;;;;;;;3.17;1.95;;;;;;;26.08;33.95;93898.00;4967128;28;20282;-65
2022/09/28 11:50:39;;;;;;;3.30;1.73;;;;;;;26.00;31.02;93898.56;4965955;28;20216;-66
2022/09/28 11:53:08;;;;;;;3.45;2.00;;;;;;;26.35;31.38;93908.38;4968489;28;20264;-66
2022/09/28 11:55:37;;;;;;;3.10;1.98;;;;;;;26.34;33.08;93914.84;4987020;28;20204;-67
2022/09/28 11:58:22;;;;;;;2.75;1.90;;;;;;;25.93;31.95;93914.22;4983840;28;20187;-67
2022/09/28 12:00:58;;;;;;;2.17;1.70;;;;;;;25.84;32.53;93903.19;4967352;28;20187;-65
2022/09/28 12:03:47;;;;;;;5.05;1.70;;;;;;;25.44;30.91;93896.00;4975095;28;20191;-66